createdAt,value
2018-02-07T00:02:24.443Z,10.73
2018-02-07T00:04:50.875Z,14.13
2018-02-07T00:07:17.289Z,8.82
2018-02-07T00:09:43.747Z,13.98
2018-02-07T00:12:10.194Z,14.50
2018-02-07T00:14:36.648Z,12.18
2018-02-07T00:17:03.082Z,13.25
2018-02-07T00:19:29.565Z,15.60
2018-02-07T00:21:55.989Z,16.80
2018-02-07T00:24:23.158Z,15.55
2018-02-07T00:26:49.793Z,16.80
2018-02-07T00:29:16.220Z,17.35
2018-02-07T00:31:42.660Z,13.65
2018-02-07T00:34:09.145Z,8.00
2018-02-07T00:36:35.588Z,11.98
2018-02-07T00:39:03.581Z,8.90
2018-02-07T00:41:30.002Z,7.97
2018-02-07T00:43:56.416Z,8.23
2018-02-07T00:46:22.854Z,8.85
2018-02-07T00:48:49.289Z,10.05
2018-02-07T00:51:17.238Z,7.10
2018-02-07T00:53:43.663Z,9.65
2018-02-07T00:56:10.089Z,7.07
2018-02-07T00:58:36.552Z,4.18
2018-02-07T01:01:02.968Z,5.25
2018-02-07T01:03:29.414Z,5.95
2018-02-07T01:05:55.844Z,5.68
2018-02-07T01:08:22.272Z,7.60
2018-02-07T01:10:48.712Z,5.95
2018-02-07T01:13:15.155Z,5.60
2018-02-07T01:15:41.590Z,5.93
2018-02-07T01:18:08.017Z,7.05
2018-02-07T01:20:34.467Z,8.77
2018-02-07T01:23:00.941Z,14.98
2018-02-07T01:25:27.368Z,8.90
2018-02-07T01:27:53.824Z,10.43
2018-02-07T01:30:20.255Z,6.15
2018-02-07T01:32:46.667Z,10.68
2018-02-07T01:35:17.787Z,8.75
2018-02-07T01:37:44.223Z,10.65
2018-02-07T01:40:10.672Z,10.88
2018-02-07T01:42:37.088Z,14.25
2018-02-07T01:45:03.500Z,15.45
2018-02-07T01:47:29.961Z,12.05
2018-02-07T01:49:56.352Z,17.65
2018-02-07T01:52:22.928Z,10.00
2018-02-07T01:54:50.834Z,11.48
2018-02-07T01:57:17.264Z,13.07
2018-02-07T01:59:44.401Z,9.82
2018-02-07T02:02:10.832Z,11.93
2018-02-07T02:04:37.295Z,15.20
2018-02-07T02:07:03.753Z,9.02
2018-02-07T02:09:30.210Z,8.73
2018-02-07T02:11:56.660Z,10.32
2018-02-07T02:14:23.094Z,9.88
2018-02-07T02:16:49.527Z,6.10
2018-02-07T02:19:15.936Z,10.82
2018-02-07T02:21:42.352Z,9.45
2018-02-07T02:24:08.816Z,10.25
2018-02-07T02:26:35.252Z,4.53
2018-02-07T02:29:02.475Z,8.45
2018-02-07T02:31:28.978Z,12.40
2018-02-07T02:33:55.570Z,7.45
2018-02-07T02:36:34.377Z,9.38
2018-02-07T02:39:01.740Z,15.50
2018-02-07T02:41:29.071Z,12.07
2018-02-07T02:43:55.743Z,8.07
2018-02-07T02:46:22.278Z,5.68
2018-02-07T02:48:48.826Z,5.82
2018-02-07T02:51:15.410Z,6.50
2018-02-07T02:53:42.114Z,5.70
2018-02-07T02:56:08.675Z,6.25
2018-02-07T02:58:35.265Z,4.18
2018-02-07T03:01:01.810Z,5.12
2018-02-07T03:03:28.546Z,4.47
2018-02-07T03:05:55.238Z,3.65
2018-02-07T03:08:21.966Z,9.57
2018-02-07T03:10:48.534Z,5.25
2018-02-07T03:13:15.162Z,7.72
2018-02-07T03:15:41.717Z,7.28
2018-02-07T03:18:08.335Z,11.02
2018-02-07T03:20:34.915Z,8.73
2018-02-07T03:23:01.474Z,4.70
2018-02-07T03:25:28.743Z,5.53
2018-02-07T03:27:55.304Z,5.70
2018-02-07T03:30:21.839Z,10.00
2018-02-07T03:32:49.449Z,3.62
2018-02-07T03:35:15.864Z,4.60
2018-02-07T03:37:42.338Z,3.70
2018-02-07T03:40:08.784Z,3.25
2018-02-07T03:42:35.223Z,3.65
2018-02-07T03:45:02.360Z,5.80
2018-02-07T03:47:28.787Z,3.80
2018-02-07T03:49:55.178Z,4.95
2018-02-07T03:52:21.615Z,7.12
2018-02-07T03:54:48.020Z,4.68
2018-02-07T03:57:14.447Z,4.32
2018-02-07T03:59:40.886Z,3.62
2018-02-07T04:02:07.311Z,5.47
2018-02-07T04:04:33.760Z,7.60
2018-02-07T04:07:00.167Z,5.05
2018-02-07T04:09:26.803Z,3.83
2018-02-07T04:11:53.191Z,5.18
2018-02-07T04:14:19.744Z,6.05
2018-02-07T04:16:46.151Z,10.40
2018-02-07T04:19:12.559Z,8.50
2018-02-07T04:21:39.711Z,16.80
2018-02-07T04:24:06.195Z,18.30
2018-02-07T04:26:32.602Z,12.57
2018-02-07T04:28:59.017Z,9.48
2018-02-07T04:31:25.416Z,10.95
2018-02-07T04:33:51.847Z,8.57
2018-02-07T04:36:19.014Z,5.82
2018-02-07T04:38:46.151Z,7.65
2018-02-07T04:41:12.545Z,7.72
2018-02-07T04:43:38.959Z,16.30
2018-02-07T04:46:05.387Z,11.02
2018-02-07T04:48:31.847Z,6.53
2018-02-07T04:50:58.268Z,6.65
2018-02-07T04:53:24.705Z,10.98
2018-02-07T04:55:51.088Z,6.37
2018-02-07T04:58:17.535Z,5.82
2018-02-07T05:00:44.694Z,8.98
2018-02-07T05:03:11.889Z,12.25
2018-02-07T05:05:38.288Z,6.95
2018-02-07T05:08:04.699Z,5.15
2018-02-07T05:10:31.867Z,7.65
2018-02-07T05:12:59.012Z,4.40
2018-02-07T05:15:26.155Z,5.18
2018-02-07T05:17:53.320Z,7.80
2018-02-07T05:20:20.462Z,7.87
2018-02-07T05:22:46.959Z,13.07
2018-02-07T05:25:13.375Z,8.45
2018-02-07T05:27:39.771Z,10.45
2018-02-07T05:30:07.078Z,6.57
2018-02-07T05:32:33.533Z,4.35
2018-02-07T05:34:59.979Z,5.00
2018-02-07T05:37:27.130Z,10.63
2018-02-07T05:39:54.297Z,15.75
2018-02-07T05:42:20.707Z,22.08
2018-02-07T05:44:47.881Z,11.23
2018-02-07T05:47:15.004Z,9.73
2018-02-07T05:49:41.448Z,6.32
2018-02-07T05:52:08.595Z,8.43
2018-02-07T05:54:39.640Z,4.43
2018-02-07T05:57:07.120Z,6.97
2018-02-07T05:59:33.606Z,7.45
2018-02-07T06:02:00.014Z,6.57
2018-02-07T06:04:26.444Z,11.10
2018-02-07T06:06:52.851Z,5.70
2018-02-07T06:09:19.984Z,6.53
2018-02-07T06:11:46.416Z,9.00
2018-02-07T06:14:12.973Z,6.12
2018-02-07T06:16:40.124Z,5.65
2018-02-07T06:19:06.559Z,5.43
2018-02-07T06:21:32.955Z,7.45
2018-02-07T06:23:59.396Z,8.43
2018-02-07T06:26:25.784Z,4.87
2018-02-07T06:28:52.195Z,6.40
2018-02-07T06:31:18.590Z,4.95
2018-02-07T06:33:45.421Z,5.87
2018-02-07T06:36:12.575Z,6.78
2018-02-07T06:38:38.985Z,6.32
2018-02-07T06:41:05.512Z,6.22
2018-02-07T06:43:31.945Z,5.50
2018-02-07T06:45:58.373Z,5.85
2018-02-07T06:48:24.768Z,6.35
2018-02-07T06:50:51.989Z,7.30
2018-02-07T06:53:18.441Z,6.25
2018-02-07T06:55:44.908Z,6.15
2018-02-07T06:58:12.082Z,5.10
2018-02-07T07:00:38.589Z,4.32
2018-02-07T07:03:05.020Z,8.27
2018-02-07T07:05:32.171Z,6.00
2018-02-07T07:07:58.585Z,10.80
2018-02-07T07:10:25.025Z,6.18
2018-02-07T07:12:51.539Z,5.55
2018-02-07T07:15:17.992Z,5.35
2018-02-07T07:17:44.399Z,6.43
2018-02-07T07:20:10.854Z,9.43
2018-02-07T07:22:37.283Z,6.53
2018-02-07T07:25:04.725Z,6.80
2018-02-07T07:27:31.123Z,10.18
2018-02-07T07:29:57.587Z,8.48
2018-02-07T07:32:23.996Z,8.07
2018-02-07T07:34:50.572Z,8.55
2018-02-07T07:37:17.012Z,10.15
2018-02-07T07:39:43.467Z,9.98
2018-02-07T07:42:10.646Z,12.07
2018-02-07T07:44:37.143Z,10.07
2018-02-07T07:47:04.341Z,12.50
2018-02-07T07:49:30.811Z,10.65
2018-02-07T07:51:57.271Z,14.43
2018-02-07T07:54:24.441Z,9.50
2018-02-07T07:56:51.604Z,14.57
2018-02-07T07:59:18.343Z,12.73
2018-02-07T08:01:44.783Z,14.15
2018-02-07T08:04:11.226Z,11.88
2018-02-07T08:06:37.664Z,10.95
2018-02-07T08:09:04.107Z,11.60
2018-02-07T08:11:30.672Z,17.17
2018-02-07T08:13:57.068Z,13.57
2018-02-07T08:16:23.492Z,12.37
2018-02-07T08:18:49.964Z,11.35
2018-02-07T08:21:17.174Z,9.05
2018-02-07T08:23:43.571Z,14.63
2018-02-07T08:26:10.021Z,12.18
2018-02-07T08:28:37.206Z,9.35
2018-02-07T08:31:03.671Z,12.73
2018-02-07T08:33:30.149Z,8.48
2018-02-07T08:35:56.583Z,10.18
2018-02-07T08:38:23.733Z,16.65
2018-02-07T08:40:50.912Z,12.48
2018-02-07T08:43:17.333Z,11.52
2018-02-07T08:45:44.499Z,11.23
2018-02-07T08:48:10.929Z,12.68
2018-02-07T08:50:37.381Z,13.25
2018-02-07T08:53:04.795Z,11.40
2018-02-07T08:55:31.973Z,20.17
2018-02-07T08:57:58.443Z,12.73
2018-02-07T09:00:24.906Z,12.77
2018-02-07T09:02:51.328Z,12.95
2018-02-07T09:05:17.779Z,14.30
2018-02-07T09:07:44.922Z,13.62
2018-02-07T09:10:11.375Z,13.27
2018-02-07T09:12:37.848Z,14.77
2018-02-07T09:15:04.296Z,12.95
2018-02-07T09:17:30.708Z,20.08
2018-02-07T09:19:57.132Z,21.62
2018-02-07T09:22:30.736Z,12.88
2018-02-07T09:24:57.150Z,12.32
2018-02-07T09:27:24.282Z,17.62
2018-02-07T09:29:51.439Z,14.60
2018-02-07T09:32:23.438Z,14.93
2018-02-07T09:34:49.863Z,21.12
2018-02-07T09:37:16.322Z,15.20
2018-02-07T09:39:42.737Z,16.25
2018-02-07T09:42:09.191Z,13.62
2018-02-07T09:44:40.598Z,14.68
2018-02-07T09:47:07.767Z,12.13
2018-02-07T09:49:34.173Z,13.13
2018-02-07T09:52:00.656Z,13.07
2018-02-07T09:54:27.127Z,12.93
2018-02-07T09:56:53.584Z,13.98
2018-02-07T09:59:20.729Z,16.27
2018-02-07T10:01:47.891Z,17.67
2018-02-07T10:04:15.355Z,17.10
2018-02-07T10:06:42.514Z,15.63
2018-02-07T10:09:08.948Z,15.90
2018-02-07T10:11:35.396Z,15.47
2018-02-07T10:14:01.812Z,18.67
2018-02-07T10:16:28.228Z,16.27
2018-02-07T10:18:55.386Z,20.67
2018-02-07T10:21:22.588Z,16.10
2018-02-07T10:23:49.139Z,15.57
2018-02-07T10:26:15.618Z,17.75
2018-02-07T10:28:42.030Z,18.33
2018-02-07T10:31:08.498Z,14.63
2018-02-07T10:33:34.951Z,15.00
2018-02-07T10:36:01.397Z,11.80
2018-02-07T10:38:27.792Z,21.67
2018-02-07T10:40:54.237Z,14.97
2018-02-07T10:43:20.643Z,13.90
2018-02-07T10:45:47.811Z,16.87
2018-02-07T10:48:14.217Z,16.80
2018-02-07T10:50:44.666Z,17.97
2018-02-07T10:53:11.795Z,21.30
2018-02-07T10:55:49.429Z,16.30
2018-02-07T10:58:15.863Z,14.70
2018-02-07T11:00:46.132Z,17.13
2018-02-07T11:03:12.527Z,14.63
2018-02-07T11:05:38.929Z,14.10
2018-02-07T11:08:06.224Z,14.67
2018-02-07T11:10:32.646Z,16.00
2018-02-07T11:12:59.099Z,14.67
2018-02-07T11:15:26.568Z,14.10
2018-02-07T11:17:53.015Z,15.00
2018-02-07T11:20:26.485Z,14.03
2018-02-07T11:22:52.942Z,15.00
2018-02-07T11:25:19.334Z,16.70
2018-02-07T11:27:54.662Z,15.30
2018-02-07T11:30:32.321Z,16.73
2018-02-07T11:32:58.775Z,14.87
2018-02-07T11:35:25.217Z,16.20
2018-02-07T11:38:01.623Z,15.67
2018-02-07T11:40:28.027Z,15.10
2018-02-07T11:42:59.141Z,13.30
2018-02-07T11:45:25.550Z,15.53
2018-02-07T11:47:58.067Z,16.07
2018-02-07T11:50:24.623Z,13.57
2018-02-07T11:52:53.166Z,13.73
2018-02-07T11:55:23.608Z,18.17
2018-02-07T11:57:50.132Z,16.43
2018-02-07T12:00:23.729Z,15.80
2018-02-07T12:02:52.260Z,16.07
2018-02-07T12:05:18.667Z,19.60
2018-02-07T12:07:48.974Z,13.50
2018-02-07T12:10:22.463Z,9.83
2018-02-07T12:12:48.922Z,16.90
2018-02-07T12:15:19.275Z,21.73
2018-02-07T12:17:45.731Z,15.87
2018-02-07T12:20:12.330Z,23.03
2018-02-07T12:22:39.666Z,21.20
2018-02-07T12:25:06.089Z,21.97
2018-02-07T12:27:35.659Z,18.23
2018-02-07T12:30:02.071Z,15.27
2018-02-07T12:32:30.319Z,19.20
2018-02-07T12:34:56.753Z,18.50
2018-02-07T12:37:23.184Z,21.13
2018-02-07T12:39:49.585Z,16.03
2018-02-07T12:42:16.032Z,15.87
2018-02-07T12:44:49.445Z,14.33
2018-02-07T12:47:15.868Z,14.13
2018-02-07T12:52:42.307Z,13.13
2018-02-07T12:55:08.728Z,11.80
2018-02-07T12:57:35.169Z,10.10
2018-02-07T13:00:01.592Z,12.30
2018-02-07T13:02:30.987Z,15.83
2018-02-07T13:05:11.463Z,13.57
2018-02-07T13:07:37.963Z,15.17
2018-02-07T13:10:10.439Z,15.67
2018-02-07T13:12:37.618Z,19.77
2018-02-07T13:15:04.046Z,34.87
2018-02-07T13:17:35.612Z,19.93
2018-02-07T13:20:03.224Z,17.60
2018-02-07T13:22:29.651Z,17.13
2018-02-07T13:25:00.068Z,19.93
2018-02-07T13:27:27.541Z,20.20
2018-02-07T13:30:09.366Z,13.10
2018-02-07T13:32:35.894Z,16.03
2018-02-07T13:35:02.710Z,14.73
2018-02-07T13:37:31.490Z,11.07
2018-02-07T13:40:07.619Z,11.50
2018-02-07T13:42:38.119Z,17.90
2018-02-07T13:45:05.231Z,16.33
2018-02-07T13:47:31.988Z,10.77
2018-02-07T13:50:00.563Z,11.90
2018-02-07T13:52:30.987Z,13.03
2018-02-07T13:54:59.449Z,26.27
2018-02-07T13:57:26.868Z,16.07
2018-02-07T14:00:02.284Z,15.10
2018-02-07T14:02:30.193Z,11.83
2018-02-07T14:05:04.479Z,20.43
2018-02-07T14:07:30.896Z,10.70
2018-02-07T14:09:57.324Z,30.57
2018-02-07T14:12:23.770Z,14.03
2018-02-07T14:14:50.192Z,17.57
2018-02-07T14:17:16.631Z,16.57
2018-02-07T14:19:43.084Z,15.80
2018-02-07T14:22:10.245Z,12.07
2018-02-07T14:24:36.690Z,21.13
2018-02-07T14:27:03.836Z,13.03
2018-02-07T14:29:31.099Z,10.90
2018-02-07T14:31:58.232Z,24.60
2018-02-07T14:34:24.680Z,14.47
2018-02-07T14:37:00.387Z,13.77
2018-02-07T14:39:26.817Z,15.57
2018-02-07T14:42:03.426Z,12.17
2018-02-07T14:44:29.831Z,18.77
2018-02-07T14:46:56.253Z,17.67
2018-02-07T14:49:22.797Z,18.93
2018-02-07T14:51:55.103Z,15.60
2018-02-07T14:54:21.529Z,14.57
2018-02-07T14:56:50.071Z,15.30
2018-02-07T14:59:18.519Z,12.37
2018-02-07T15:01:45.773Z,15.63
2018-02-07T15:04:12.174Z,13.53
2018-02-07T15:06:38.576Z,13.57
2018-02-07T15:09:04.995Z,15.03
2018-02-07T15:11:38.578Z,15.53
2018-02-07T15:14:05.062Z,17.13
2018-02-07T15:16:31.481Z,16.70
2018-02-07T15:19:01.767Z,14.40
2018-02-07T15:21:28.915Z,11.97
2018-02-07T15:24:05.343Z,18.37
2018-02-07T15:26:31.770Z,11.90
2018-02-07T15:28:58.194Z,14.30
2018-02-07T15:31:24.639Z,16.00
2018-02-07T15:33:51.076Z,13.17
2018-02-07T15:36:17.463Z,15.30
2018-02-07T15:38:47.783Z,15.80
2018-02-07T15:41:18.774Z,13.13
2018-02-07T15:43:45.215Z,20.07
2018-02-07T15:46:11.636Z,13.10
2018-02-07T15:48:38.054Z,19.95
2018-02-07T15:51:04.460Z,16.17
2018-02-07T15:53:30.896Z,12.63
2018-02-07T15:55:57.314Z,7.80
2018-02-07T15:58:24.487Z,14.00
2018-02-07T16:00:50.963Z,13.77
2018-02-07T16:03:17.368Z,14.30
2018-02-07T16:05:45.856Z,17.63
2018-02-07T16:08:12.260Z,11.67
2018-02-07T16:10:38.702Z,15.03
2018-02-07T16:13:05.103Z,12.43
2018-02-07T16:15:32.294Z,16.37
2018-02-07T16:18:06.535Z,16.17
2018-02-07T16:20:32.978Z,12.13
2018-02-07T16:23:05.547Z,10.03
2018-02-07T16:25:31.970Z,10.20
2018-02-07T16:27:58.475Z,13.07
2018-02-07T16:30:25.630Z,8.83
2018-02-07T16:32:52.763Z,20.43
2018-02-07T16:35:25.106Z,16.80
2018-02-07T16:37:51.554Z,23.20
2018-02-07T16:40:17.931Z,16.27
2018-02-07T16:42:48.283Z,12.13
2018-02-07T16:45:14.679Z,21.50
2018-02-07T16:47:41.128Z,12.95
2018-02-07T16:50:07.556Z,15.25
2018-02-07T16:52:38.957Z,11.27
2018-02-07T16:55:12.348Z,13.53
2018-02-07T16:57:38.754Z,14.10
2018-02-07T17:00:12.301Z,9.57
2018-02-07T17:02:38.730Z,16.37
2018-02-07T17:05:05.167Z,16.92
2018-02-07T17:07:31.635Z,17.33
2018-02-07T17:09:58.063Z,9.05
2018-02-07T17:12:24.560Z,10.35
2018-02-07T17:14:50.988Z,8.73
2018-02-07T17:17:17.422Z,21.40
2018-02-07T17:19:47.666Z,12.63
2018-02-07T17:22:14.099Z,13.65
2018-02-07T17:24:48.395Z,14.05
2018-02-07T17:27:25.012Z,14.10
2018-02-07T17:29:52.149Z,16.27
2018-02-07T17:32:18.544Z,14.50
2018-02-07T17:34:44.954Z,11.32
2018-02-07T17:37:18.464Z,16.95
2018-02-07T17:39:44.845Z,24.12
2018-02-07T17:42:11.247Z,10.32
2018-02-07T17:44:37.673Z,16.02
2018-02-07T17:47:04.199Z,16.62
2018-02-07T17:49:30.639Z,14.40
2018-02-07T17:51:57.043Z,18.30
2018-02-07T17:54:24.177Z,17.73
2018-02-07T17:56:51.295Z,13.82
2018-02-07T17:59:18.002Z,13.43
2018-02-07T18:01:44.403Z,16.62
2018-02-07T18:04:11.563Z,15.93
2018-02-07T18:06:42.627Z,13.27
2018-02-07T18:09:09.023Z,18.23
2018-02-07T18:11:35.433Z,17.30
2018-02-07T18:14:01.940Z,22.33
2018-02-07T18:16:28.342Z,24.65
2018-02-07T18:19:11.787Z,17.15
2018-02-07T18:21:48.977Z,15.23
2018-02-07T18:24:15.412Z,15.80
2018-02-07T18:26:42.809Z,13.43
2018-02-07T18:29:13.222Z,9.85
2018-02-07T18:31:39.616Z,13.02
2018-02-07T18:34:26.120Z,11.27
2018-02-07T18:36:52.563Z,9.05
2018-02-07T18:39:19.724Z,10.57
2018-02-07T18:41:51.215Z,11.12
2018-02-07T18:44:17.935Z,11.40
2018-02-07T18:46:44.368Z,11.52
2018-02-07T18:49:11.827Z,11.02
2018-02-07T18:51:44.627Z,13.43
2018-02-07T18:54:15.018Z,11.95
2018-02-07T18:56:41.399Z,11.60
2018-02-07T18:59:16.062Z,17.60
2018-02-07T19:01:46.295Z,10.63
2018-02-07T19:04:14.833Z,10.57
2018-02-07T19:06:48.314Z,12.37
2018-02-07T19:09:16.754Z,12.77
2018-02-07T19:11:49.891Z,16.27
2018-02-07T19:14:23.316Z,10.98
2018-02-07T19:16:51.767Z,14.48
2018-02-07T19:19:31.328Z,16.98
2018-02-07T19:22:02.724Z,12.75
2018-02-07T19:24:37.144Z,11.55
2018-02-07T19:27:07.256Z,9.18
2018-02-07T19:29:49.276Z,10.27
2018-02-07T19:32:15.812Z,11.55
2018-02-07T19:34:50.255Z,9.93
2018-02-07T19:37:18.703Z,10.77
2018-02-07T19:39:59.264Z,11.50
2018-02-07T19:42:26.575Z,16.83
2018-02-07T19:45:04.202Z,10.52
2018-02-07T19:47:31.352Z,10.82
2018-02-07T19:49:58.604Z,12.68
2018-02-07T19:52:29.606Z,14.40
2018-02-07T19:54:57.047Z,11.55
2018-02-07T19:57:23.436Z,10.43
2018-02-07T19:59:54.885Z,8.27
2018-02-07T20:02:25.308Z,9.38
2018-02-07T20:04:51.711Z,11.07
2018-02-07T20:07:18.140Z,11.52
2018-02-07T20:09:46.051Z,13.20
2018-02-07T20:12:13.270Z,10.95
2018-02-07T20:14:40.620Z,11.12
2018-02-07T20:17:07.814Z,10.32
2018-02-07T20:19:34.976Z,9.40
2018-02-07T20:22:01.375Z,10.43
2018-02-07T20:24:28.555Z,14.30
2018-02-07T20:27:04.239Z,13.95
2018-02-07T20:29:30.679Z,12.55
2018-02-07T20:31:57.071Z,9.63
2018-02-07T20:34:25.264Z,11.18
2018-02-07T20:36:51.697Z,13.15
2018-02-07T20:39:18.103Z,12.57
2018-02-07T20:41:44.514Z,11.60
2018-02-07T20:44:10.939Z,12.55
2018-02-07T20:46:38.371Z,12.93
2018-02-07T20:49:04.867Z,9.70
2018-02-07T20:51:32.292Z,11.32
2018-02-07T20:53:58.849Z,12.50
2018-02-07T20:56:25.442Z,15.27
2018-02-07T20:58:53.048Z,12.05
2018-02-07T21:01:20.292Z,19.70
2018-02-07T21:03:48.579Z,16.15
2018-02-07T21:06:15.049Z,12.82
2018-02-07T21:08:41.525Z,11.35
2018-02-07T21:11:08.002Z,8.57
2018-02-07T21:13:35.257Z,15.35
2018-02-07T21:16:02.493Z,8.75
2018-02-07T21:18:29.825Z,8.20
2018-02-07T21:20:56.318Z,13.30
2018-02-07T21:23:22.723Z,11.10
2018-02-07T21:25:49.911Z,7.30
2018-02-07T21:28:16.515Z,8.95
2018-02-07T21:30:42.942Z,7.97
2018-02-07T21:33:11.842Z,8.93
2018-02-07T21:35:38.292Z,17.80
2018-02-07T21:38:05.444Z,10.38
2018-02-07T21:40:32.579Z,8.32
2018-02-07T21:42:59.789Z,9.43
2018-02-07T21:45:26.263Z,13.02
2018-02-07T21:47:53.447Z,9.85
2018-02-07T21:50:19.935Z,8.73
2018-02-07T21:52:46.324Z,11.55
2018-02-07T21:55:12.739Z,15.25
2018-02-07T21:57:39.902Z,9.82
2018-02-07T22:00:06.330Z,10.10
2018-02-07T22:02:32.711Z,18.52
2018-02-07T22:04:59.103Z,18.70
2018-02-07T22:07:25.533Z,13.57
2018-02-07T22:09:51.945Z,12.50
2018-02-07T22:12:19.126Z,9.57
2018-02-07T22:14:45.632Z,7.72
2018-02-07T22:17:12.795Z,8.75
2018-02-07T22:19:39.941Z,7.53
2018-02-07T22:22:07.123Z,9.85
2018-02-07T22:24:33.512Z,14.45
2018-02-07T22:27:00.665Z,9.43
2018-02-07T22:29:27.065Z,12.13
2018-02-07T22:31:53.492Z,10.68
2018-02-07T22:34:19.944Z,11.30
2018-02-07T22:36:46.462Z,9.52
2018-02-07T22:39:13.163Z,8.02
2018-02-07T22:41:39.599Z,9.55
2018-02-07T22:44:06.276Z,7.70
2018-02-07T22:46:32.696Z,10.15
2018-02-07T22:48:59.095Z,9.02
2018-02-07T22:51:25.514Z,10.57
2018-02-07T22:53:51.934Z,10.00
2018-02-07T22:56:18.447Z,11.12
2018-02-07T22:58:44.854Z,7.60
2018-02-07T23:01:11.275Z,8.65
2018-02-07T23:03:38.055Z,7.93
2018-02-07T23:06:04.452Z,11.25
2018-02-07T23:08:30.839Z,8.35
2018-02-07T23:10:58.260Z,8.85
2018-02-07T23:13:24.680Z,9.20
2018-02-07T23:15:51.112Z,9.02
2018-02-07T23:18:17.523Z,8.93
2018-02-07T23:20:44.681Z,10.98
2018-02-07T23:23:11.831Z,14.40
2018-02-07T23:25:39.000Z,7.18
2018-02-07T23:28:05.379Z,10.80
2018-02-07T23:30:31.787Z,12.05
2018-02-07T23:32:58.220Z,9.35
2018-02-07T23:35:24.627Z,11.73
2018-02-07T23:37:51.064Z,13.45
2018-02-07T23:40:17.463Z,10.18
2018-02-07T23:42:44.614Z,7.00
2018-02-07T23:45:11.747Z,18.70
2018-02-07T23:47:38.141Z,16.87
2018-02-07T23:50:04.543Z,10.55
2018-02-07T23:52:31.677Z,12.55
2018-02-07T23:54:58.085Z,18.08
2018-02-07T23:57:24.494Z,9.00
2018-02-07T23:59:50.919Z,8.90
